AUA64 KDFW-LOWW
Flight info
| Callsign | AUA64 |
|---|---|
| Flight time | N/A |
| Altitude | 35000 |
| Route | CYN228003 CYN SAILN Q97 BEEKN EBONY N433B ELSIR 5050N 5140N 5130N 5120N DINIM ELSOX ARKIL SIDDI DAWLY L620 SAM M140 DVR UL9 KONAN UL607 KOK MATUG AMASI BOMBI DETEV DINKU BESNI ALUTU AKIMA MASUR |
| Aircraft | B772/H-SDE2E3FGHIJ5LORVWXY/LB1D1 |
Departure
| Time | N/A |
|---|---|
| Airport | Dallas Fort Worth International Airport (KDFW) |
Arrival
| Time | 2026-04-25 23:37 |
|---|---|
| Airport | Vienna International Airport (LOWW) |
| Time | Latitude | Longitude | Altitude | Speed | Heading |
|---|---|---|---|---|---|
| 2026-04-25 21:21 | 50.73086 | -9.38012 | 38219 ft | 520 kts | 98° |
| 2026-04-25 21:21 | 50.72682 | -9.32345 | 38224 ft | 520 kts | 98° |
| 2026-04-25 21:22 | 50.71865 | -9.21011 | 38230 ft | 520 kts | 99° |
| 2026-04-25 21:22 | 50.71036 | -9.09673 | 38235 ft | 520 kts | 99° |
| 2026-04-25 21:23 | 50.70197 | -8.98339 | 38228 ft | 520 kts | 99° |
| 2026-04-25 21:23 | 50.69345 | -8.87003 | 38220 ft | 521 kts | 99° |
| 2026-04-25 21:24 | 50.68481 | -8.75650 | 38230 ft | 521 kts | 99° |
| 2026-04-25 21:24 | 50.67607 | -8.64303 | 38234 ft | 521 kts | 99° |
| 2026-04-25 21:25 | 50.66721 | -8.52952 | 38232 ft | 522 kts | 99° |
| 2026-04-25 21:25 | 50.65829 | -8.41679 | 38219 ft | 522 kts | 99° |
| 2026-04-25 21:26 | 50.64921 | -8.30333 | 38233 ft | 522 kts | 99° |
| 2026-04-25 21:26 | 50.63995 | -8.18908 | 38238 ft | 522 kts | 99° |
| 2026-04-25 21:27 | 50.63070 | -8.07612 | 38231 ft | 523 kts | 99° |
| 2026-04-25 21:27 | 50.62313 | -7.96226 | 38234 ft | 524 kts | 94° |
| 2026-04-25 21:28 | 50.62119 | -7.84753 | 38228 ft | 524 kts | 92° |
| 2026-04-25 21:28 | 50.61954 | -7.73272 | 38229 ft | 524 kts | 92° |
| 2026-04-25 21:29 | 50.61748 | -7.61784 | 38238 ft | 525 kts | 93° |
| 2026-04-25 21:29 | 50.61509 | -7.50294 | 38235 ft | 525 kts | 93° |
| 2026-04-25 21:30 | 50.61253 | -7.38811 | 38228 ft | 525 kts | 93° |
| 2026-04-25 21:30 | 50.61034 | -7.29247 | 38238 ft | 526 kts | 93° |
| 2026-04-25 21:31 | 50.60714 | -7.15799 | 38233 ft | 526 kts | 93° |
| 2026-04-25 21:31 | 50.60427 | -7.04282 | 38233 ft | 526 kts | 93° |
| 2026-04-25 21:32 | 50.60131 | -6.92843 | 38233 ft | 527 kts | 93° |
| 2026-04-25 21:32 | 50.59823 | -6.81321 | 38238 ft | 527 kts | 93° |
| 2026-04-25 21:33 | 50.59502 | -6.69799 | 38233 ft | 527 kts | 93° |
| 2026-04-25 21:33 | 50.59170 | -6.58258 | 38234 ft | 527 kts | 93° |
| 2026-04-25 21:34 | 50.58826 | -6.46734 | 38232 ft | 528 kts | 93° |
| 2026-04-25 21:34 | 50.58470 | -6.35201 | 38234 ft | 528 kts | 93° |
| 2026-04-25 21:35 | 50.58104 | -6.23665 | 38238 ft | 528 kts | 93° |
| 2026-04-25 21:35 | 50.57726 | -6.12142 | 38237 ft | 528 kts | 93° |
| 2026-04-25 21:36 | 50.57336 | -6.00607 | 38235 ft | 528 kts | 93° |
| 2026-04-25 21:36 | 50.56936 | -5.89085 | 38236 ft | 528 kts | 93° |
| 2026-04-25 21:37 | 50.56594 | -5.79511 | 38233 ft | 528 kts | 93° |
| 2026-04-25 21:37 | 50.56101 | -5.66048 | 38233 ft | 528 kts | 93° |
| 2026-04-25 21:38 | 50.55666 | -5.54528 | 38232 ft | 527 kts | 93° |
| 2026-04-25 21:38 | 50.55220 | -5.43015 | 38234 ft | 527 kts | 93° |
| 2026-04-25 21:39 | 50.54763 | -5.31521 | 38236 ft | 527 kts | 93° |
| 2026-04-25 21:39 | 50.54293 | -5.19992 | 38236 ft | 526 kts | 93° |
| 2026-04-25 21:40 | 50.53820 | -5.08631 | 38239 ft | 526 kts | 94° |
| 2026-04-25 21:40 | 50.53330 | -4.97160 | 38239 ft | 526 kts | 94° |
| 2026-04-25 21:41 | 50.52829 | -4.85694 | 38240 ft | 525 kts | 94° |
| 2026-04-25 21:41 | 50.52316 | -4.74233 | 38236 ft | 525 kts | 94° |
| 2026-04-25 21:42 | 50.51794 | -4.62787 | 38234 ft | 525 kts | 94° |
| 2026-04-25 21:42 | 50.51259 | -4.51335 | 38233 ft | 525 kts | 94° |
| 2026-04-25 21:43 | 50.50714 | -4.39882 | 38230 ft | 525 kts | 94° |
| 2026-04-25 21:43 | 50.50157 | -4.28436 | 38238 ft | 525 kts | 94° |
| 2026-04-25 21:44 | 50.49591 | -4.17019 | 38235 ft | 525 kts | 94° |
| 2026-04-25 21:45 | 50.48802 | -3.99866 | 38238 ft | 525 kts | 90° |
| 2026-04-25 21:45 | 50.49302 | -3.88470 | 38232 ft | 523 kts | 79° |
| 2026-04-25 21:46 | 50.50612 | -3.77273 | 38458 ft | 519 kts | 78° |
| 2026-04-25 21:46 | 50.51260 | -3.71712 | 38582 ft | 518 kts | 78° |
| 2026-04-25 21:46 | 50.51885 | -3.66152 | 38739 ft | 516 kts | 78° |
| 2026-04-25 21:46 | 50.52650 | -3.60699 | 38841 ft | 507 kts | 67° |
| 2026-04-25 21:47 | 50.54261 | -3.55835 | 38957 ft | 499 kts | 54° |
| 2026-04-25 21:47 | 50.56079 | -3.51186 | 39098 ft | 500 kts | 61° |
| 2026-04-25 21:47 | 50.57410 | -3.46208 | 39139 ft | 502 kts | 68° |
| 2026-04-25 21:48 | 50.59492 | -3.35721 | 39240 ft | 503 kts | 72° |
| 2026-04-25 21:48 | 50.61466 | -3.25103 | 39254 ft | 506 kts | 72° |
| 2026-04-25 21:49 | 50.63459 | -3.14435 | 39247 ft | 509 kts | 72° |
| 2026-04-25 21:49 | 50.65468 | -3.03729 | 39245 ft | 511 kts | 72° |
| 2026-04-25 21:50 | 50.67477 | -2.92962 | 39238 ft | 512 kts | 72° |
| 2026-04-25 21:50 | 50.69479 | -2.82167 | 39235 ft | 514 kts | 72° |
| 2026-04-25 21:51 | 50.71477 | -2.71319 | 39236 ft | 515 kts | 72° |
| 2026-04-25 21:51 | 50.73455 | -2.60444 | 39241 ft | 516 kts | 72° |
| 2026-04-25 21:52 | 50.75428 | -2.49537 | 39241 ft | 517 kts | 72° |
| 2026-04-25 21:52 | 50.77388 | -2.38593 | 39238 ft | 518 kts | 73° |
| 2026-04-25 21:53 | 50.79340 | -2.27630 | 39242 ft | 518 kts | 73° |
| 2026-04-25 21:53 | 50.81282 | -2.16657 | 39236 ft | 519 kts | 73° |
| 2026-04-25 21:54 | 50.83214 | -2.05661 | 39236 ft | 519 kts | 73° |
| 2026-04-25 21:54 | 50.85137 | -1.94664 | 39237 ft | 519 kts | 73° |
| 2026-04-25 21:55 | 50.87059 | -1.83654 | 39247 ft | 518 kts | 73° |
| 2026-04-25 21:55 | 50.88970 | -1.72657 | 39239 ft | 518 kts | 73° |
| 2026-04-25 21:56 | 50.90873 | -1.61625 | 39238 ft | 518 kts | 74° |
| 2026-04-25 21:56 | 50.92762 | -1.50602 | 39240 ft | 518 kts | 74° |
| 2026-04-25 21:57 | 50.94640 | -1.39587 | 39244 ft | 518 kts | 74° |
| 2026-04-25 21:57 | 50.96137 | -1.28511 | 39246 ft | 518 kts | 81° |
| 2026-04-25 21:58 | 50.97091 | -1.17183 | 39243 ft | 518 kts | 82° |
| 2026-04-25 21:58 | 50.98017 | -1.05864 | 39242 ft | 518 kts | 82° |
| 2026-04-25 21:59 | 50.98972 | -0.94545 | 39242 ft | 517 kts | 82° |
| 2026-04-25 21:59 | 50.99935 | -0.83225 | 39247 ft | 517 kts | 82° |
| 2026-04-25 22:00 | 51.01360 | -0.66237 | 39246 ft | 517 kts | 82° |
| 2026-04-25 22:00 | 51.02293 | -0.54912 | 39255 ft | 517 kts | 82° |
| 2026-04-25 22:01 | 51.03214 | -0.43582 | 39247 ft | 517 kts | 82° |
| 2026-04-25 22:01 | 51.03971 | -0.34163 | 39241 ft | 517 kts | 82° |
| 2026-04-25 22:02 | 51.05025 | -0.20902 | 39243 ft | 517 kts | 82° |
| 2026-04-25 22:02 | 51.05914 | -0.09562 | 39239 ft | 517 kts | 82° |
| 2026-04-25 22:03 | 51.06793 | 0.01791 | 39267 ft | 517 kts | 82° |
| 2026-04-25 22:03 | 51.07659 | 0.13136 | 39278 ft | 517 kts | 82° |
| 2026-04-25 22:04 | 51.08513 | 0.24485 | 39283 ft | 516 kts | 82° |
| 2026-04-25 22:04 | 51.09355 | 0.35818 | 39294 ft | 516 kts | 82° |
| 2026-04-25 22:05 | 51.10188 | 0.47161 | 39292 ft | 516 kts | 82° |
| 2026-04-25 22:05 | 51.11009 | 0.58497 | 39289 ft | 516 kts | 83° |
| 2026-04-25 22:06 | 51.11680 | 0.67910 | 39281 ft | 515 kts | 83° |
| 2026-04-25 22:06 | 51.12478 | 0.79251 | 39274 ft | 515 kts | 83° |
| 2026-04-25 22:07 | 51.13137 | 0.88733 | 39265 ft | 515 kts | 83° |
| 2026-04-25 22:07 | 51.14040 | 1.01912 | 39266 ft | 515 kts | 83° |
| 2026-04-25 22:08 | 51.14805 | 1.13249 | 39263 ft | 515 kts | 83° |
| 2026-04-25 22:08 | 51.15559 | 1.24578 | 39264 ft | 514 kts | 83° |
| 2026-04-25 22:09 | 51.16204 | 1.35924 | 39264 ft | 514 kts | 87° |
| 2026-04-25 22:09 | 51.15856 | 1.47309 | 39270 ft | 514 kts | 94° |
| 2026-04-25 22:10 | 51.15224 | 1.58650 | 39268 ft | 514 kts | 94° |
| 2026-04-25 22:10 | 51.14631 | 1.69988 | 39258 ft | 514 kts | 94° |
| 2026-04-25 22:11 | 51.14062 | 1.81345 | 39256 ft | 514 kts | 94° |
| 2026-04-25 22:11 | 51.13483 | 1.92682 | 39246 ft | 514 kts | 94° |
| 2026-04-25 22:12 | 51.12889 | 2.04012 | 39243 ft | 513 kts | 94° |
| 2026-04-25 22:12 | 51.12388 | 2.13416 | 39243 ft | 513 kts | 94° |
| 2026-04-25 22:13 | 51.11671 | 2.26639 | 39249 ft | 513 kts | 94° |
| 2026-04-25 22:13 | 51.11048 | 2.37944 | 39249 ft | 512 kts | 94° |
| 2026-04-25 22:14 | 51.10414 | 2.49237 | 39246 ft | 512 kts | 94° |
| 2026-04-25 22:14 | 51.09771 | 2.60536 | 39246 ft | 512 kts | 94° |
| 2026-04-25 22:15 | 51.08552 | 2.71682 | 39241 ft | 512 kts | 104° |
| 2026-04-25 22:16 | 51.05753 | 2.88072 | 39272 ft | 512 kts | 105° |
| 2026-04-25 22:16 | 51.03891 | 2.99010 | 39260 ft | 512 kts | 104° |
| 2026-04-25 22:17 | 51.02050 | 3.09941 | 39254 ft | 512 kts | 104° |
| 2026-04-25 22:17 | 51.00208 | 3.20872 | 39250 ft | 512 kts | 104° |
| 2026-04-25 22:18 | 50.98355 | 3.31795 | 39253 ft | 512 kts | 105° |
| 2026-04-25 22:18 | 50.96490 | 3.42703 | 39245 ft | 512 kts | 105° |
| 2026-04-25 22:19 | 50.94614 | 3.53607 | 39245 ft | 512 kts | 105° |
| 2026-04-25 22:19 | 50.92728 | 3.64495 | 39252 ft | 512 kts | 105° |
| 2026-04-25 22:20 | 50.90831 | 3.75386 | 39239 ft | 512 kts | 105° |
| 2026-04-25 22:20 | 50.88927 | 3.86245 | 39252 ft | 512 kts | 105° |
| 2026-04-25 22:21 | 50.87010 | 3.97116 | 39254 ft | 512 kts | 105° |
| 2026-04-25 22:21 | 50.85082 | 4.07984 | 39250 ft | 512 kts | 105° |
| 2026-04-25 22:22 | 50.83144 | 4.18844 | 39239 ft | 513 kts | 105° |
| 2026-04-25 22:22 | 50.81197 | 4.29682 | 39236 ft | 512 kts | 105° |
| 2026-04-25 22:23 | 50.79252 | 4.40449 | 39225 ft | 513 kts | 105° |
| 2026-04-25 22:23 | 50.77285 | 4.51274 | 39241 ft | 513 kts | 106° |
| 2026-04-25 22:24 | 50.75303 | 4.62113 | 39244 ft | 513 kts | 106° |
| 2026-04-25 22:24 | 50.73313 | 4.72941 | 39185 ft | 513 kts | 107° |
| 2026-04-25 22:25 | 50.71315 | 4.83740 | 39230 ft | 513 kts | 107° |
| 2026-04-25 22:25 | 50.69307 | 4.94531 | 39238 ft | 513 kts | 107° |
| 2026-04-25 22:26 | 50.67287 | 5.05321 | 39236 ft | 513 kts | 107° |
| 2026-04-25 22:26 | 50.65256 | 5.16113 | 39233 ft | 514 kts | 107° |
| 2026-04-25 22:27 | 50.63210 | 5.26925 | 39234 ft | 515 kts | 107° |
| 2026-04-25 22:27 | 50.61152 | 5.37734 | 39228 ft | 515 kts | 108° |
| 2026-04-25 22:28 | 50.59084 | 5.48533 | 39220 ft | 516 kts | 108° |
| 2026-04-25 22:28 | 50.57001 | 5.59346 | 39222 ft | 516 kts | 108° |
| 2026-04-25 22:29 | 50.54906 | 5.70164 | 39213 ft | 517 kts | 108° |
| 2026-04-25 22:29 | 50.52800 | 5.80974 | 39216 ft | 518 kts | 108° |
| 2026-04-25 22:30 | 50.49619 | 5.97194 | 39211 ft | 518 kts | 108° |
| 2026-04-25 22:30 | 50.47846 | 6.06178 | 39207 ft | 518 kts | 109° |
| 2026-04-25 22:31 | 50.45342 | 6.18790 | 39206 ft | 518 kts | 109° |
| 2026-04-25 22:31 | 50.43204 | 6.29506 | 39206 ft | 518 kts | 109° |
| 2026-04-25 22:32 | 50.41153 | 6.40416 | 39201 ft | 519 kts | 104° |
| 2026-04-25 22:32 | 50.39645 | 6.51398 | 39195 ft | 519 kts | 103° |
| 2026-04-25 22:33 | 50.38153 | 6.62464 | 39191 ft | 519 kts | 103° |
| 2026-04-25 22:33 | 50.36621 | 6.73514 | 39193 ft | 519 kts | 104° |
| 2026-04-25 22:34 | 50.35062 | 6.84542 | 39187 ft | 519 kts | 104° |
| 2026-04-25 22:34 | 50.33489 | 6.95569 | 39188 ft | 519 kts | 104° |
| 2026-04-25 22:35 | 50.31907 | 7.06599 | 39187 ft | 520 kts | 104° |
| 2026-04-25 22:35 | 50.30313 | 7.17631 | 39189 ft | 520 kts | 104° |
| 2026-04-25 22:36 | 50.28708 | 7.28665 | 39194 ft | 520 kts | 104° |
| 2026-04-25 22:36 | 50.27093 | 7.39690 | 39193 ft | 521 kts | 104° |
| 2026-04-25 22:37 | 50.25465 | 7.50729 | 39193 ft | 521 kts | 104° |
| 2026-04-25 22:37 | 50.23837 | 7.61696 | 39190 ft | 522 kts | 104° |
| 2026-04-25 22:38 | 50.22195 | 7.72741 | 39185 ft | 522 kts | 104° |
| 2026-04-25 22:38 | 50.20548 | 7.83784 | 39187 ft | 522 kts | 104° |
| 2026-04-25 22:39 | 50.18890 | 7.94822 | 39182 ft | 523 kts | 104° |
| 2026-04-25 22:39 | 50.17218 | 8.05879 | 39179 ft | 523 kts | 104° |
| 2026-04-25 22:40 | 50.15534 | 8.16924 | 39178 ft | 523 kts | 104° |
| 2026-04-25 22:40 | 50.13840 | 8.27964 | 39178 ft | 524 kts | 104° |
| 2026-04-25 22:41 | 50.12145 | 8.38933 | 39175 ft | 524 kts | 104° |
| 2026-04-25 22:41 | 50.10418 | 8.50039 | 39186 ft | 524 kts | 104° |
| 2026-04-25 22:42 | 50.08604 | 8.61013 | 39183 ft | 523 kts | 110° |
| 2026-04-25 22:42 | 50.05569 | 8.71236 | 39194 ft | 519 kts | 122° |
| 2026-04-25 22:43 | 50.01465 | 8.80332 | 39185 ft | 517 kts | 129° |
| 2026-04-25 22:43 | 49.97122 | 8.89224 | 39176 ft | 517 kts | 129° |
| 2026-04-25 22:44 | 49.92798 | 8.98145 | 39171 ft | 517 kts | 129° |
| 2026-04-25 22:44 | 49.88492 | 9.07078 | 39164 ft | 517 kts | 129° |
| 2026-04-25 22:45 | 49.86338 | 9.11541 | 39329 ft | 518 kts | 127° |
| 2026-04-25 22:45 | 49.84171 | 9.16024 | 39252 ft | 521 kts | 127° |
| 2026-04-25 22:45 | 49.79809 | 9.25028 | 39180 ft | 524 kts | 127° |
| 2026-04-25 22:46 | 49.75418 | 9.34054 | 39176 ft | 526 kts | 127° |
| 2026-04-25 22:46 | 49.71007 | 9.43088 | 39161 ft | 527 kts | 127° |
| 2026-04-25 22:47 | 49.66584 | 9.52115 | 39164 ft | 528 kts | 127° |
| 2026-04-25 22:47 | 49.62141 | 9.61151 | 39143 ft | 529 kts | 127° |
| 2026-04-25 22:48 | 49.57686 | 9.70186 | 39145 ft | 529 kts | 127° |
| 2026-04-25 22:48 | 49.53223 | 9.79201 | 39151 ft | 529 kts | 127° |
| 2026-04-25 22:49 | 49.48750 | 9.88207 | 39158 ft | 529 kts | 127° |
| 2026-04-25 22:49 | 49.44272 | 9.97195 | 39159 ft | 530 kts | 127° |
| 2026-04-25 22:50 | 49.39777 | 10.06185 | 39162 ft | 530 kts | 127° |
| 2026-04-25 22:50 | 49.36035 | 10.13646 | 39147 ft | 531 kts | 127° |
| 2026-04-25 22:51 | 49.31529 | 10.22604 | 39162 ft | 531 kts | 127° |
| 2026-04-25 22:51 | 49.27015 | 10.31553 | 39134 ft | 531 kts | 127° |
| 2026-04-25 22:52 | 49.22373 | 10.40321 | 39140 ft | 529 kts | 131° |
| 2026-04-25 22:52 | 49.18179 | 10.49584 | 39186 ft | 527 kts | 116° |
| 2026-04-25 22:53 | 49.15331 | 10.59792 | 39188 ft | 525 kts | 109° |
| 2026-04-25 22:53 | 49.12700 | 10.70284 | 39192 ft | 526 kts | 109° |
| 2026-04-25 22:54 | 49.10038 | 10.80609 | 39187 ft | 527 kts | 110° |
| 2026-04-25 22:54 | 49.07325 | 10.90997 | 39161 ft | 527 kts | 110° |
| 2026-04-25 22:55 | 49.04604 | 11.01369 | 39165 ft | 527 kts | 110° |
| 2026-04-25 22:55 | 49.01875 | 11.11737 | 39156 ft | 528 kts | 110° |
| 2026-04-25 22:56 | 48.99135 | 11.22113 | 39140 ft | 528 kts | 110° |
| 2026-04-25 22:56 | 48.96384 | 11.32483 | 39119 ft | 528 kts | 110° |
| 2026-04-25 22:57 | 48.93628 | 11.42820 | 39138 ft | 527 kts | 110° |
| 2026-04-25 22:57 | 48.90864 | 11.53144 | 39130 ft | 527 kts | 110° |
| 2026-04-25 22:58 | 48.88093 | 11.63449 | 39129 ft | 527 kts | 110° |
| 2026-04-25 22:58 | 48.85311 | 11.73747 | 39128 ft | 527 kts | 110° |
| 2026-04-25 22:59 | 48.82523 | 11.84024 | 39129 ft | 526 kts | 111° |
| 2026-04-25 22:59 | 48.79725 | 11.94291 | 39136 ft | 527 kts | 111° |
| 2026-04-25 23:00 | 48.76897 | 12.04623 | 39124 ft | 527 kts | 111° |
| 2026-04-25 23:00 | 48.74077 | 12.14883 | 39121 ft | 527 kts | 111° |
| 2026-04-25 23:01 | 48.71266 | 12.25064 | 39119 ft | 528 kts | 111° |
| 2026-04-25 23:01 | 48.68427 | 12.35312 | 39121 ft | 528 kts | 111° |
| 2026-04-25 23:02 | 48.65583 | 12.45558 | 39110 ft | 528 kts | 111° |
| 2026-04-25 23:02 | 48.62724 | 12.55788 | 39114 ft | 528 kts | 111° |
| 2026-04-25 23:03 | 48.59851 | 12.66013 | 38929 ft | 529 kts | 111° |
| 2026-04-25 23:03 | 48.58409 | 12.71127 | 38815 ft | 527 kts | 111° |
| 2026-04-25 23:03 | 48.56973 | 12.76205 | 38673 ft | 526 kts | 111° |
| 2026-04-25 23:04 | 48.55535 | 12.81282 | 38535 ft | 525 kts | 111° |
| 2026-04-25 23:04 | 48.54101 | 12.86336 | 38395 ft | 524 kts | 111° |
| 2026-04-25 23:04 | 48.52665 | 12.91387 | 38258 ft | 523 kts | 111° |
| 2026-04-25 23:04 | 48.51229 | 12.96429 | 38125 ft | 523 kts | 111° |
| 2026-04-25 23:05 | 48.49788 | 13.01474 | 37841 ft | 526 kts | 111° |
| 2026-04-25 23:05 | 48.48330 | 13.06574 | 37236 ft | 533 kts | 111° |
| 2026-04-25 23:05 | 48.46856 | 13.11721 | 36574 ft | 536 kts | 111° |
| 2026-04-25 23:05 | 48.45396 | 13.16894 | 35953 ft | 535 kts | 109° |
| 2026-04-25 23:06 | 48.44311 | 13.22221 | 35323 ft | 530 kts | 99° |
| 2026-04-25 23:06 | 48.43741 | 13.27673 | 34724 ft | 524 kts | 92° |
| 2026-04-25 23:06 | 48.43564 | 13.33109 | 34254 ft | 514 kts | 85° |
| 2026-04-25 23:06 | 48.43799 | 13.38369 | 34285 ft | 496 kts | 81° |
| 2026-04-25 23:07 | 48.44367 | 13.48716 | 33941 ft | 494 kts | 82° |
| 2026-04-25 23:07 | 48.44626 | 13.53856 | 33658 ft | 490 kts | 82° |
| 2026-04-25 23:07 | 48.44872 | 13.58958 | 33380 ft | 488 kts | 82° |
| 2026-04-25 23:08 | 48.45110 | 13.64039 | 33107 ft | 485 kts | 82° |
| 2026-04-25 23:08 | 48.45341 | 13.69100 | 32803 ft | 484 kts | 82° |
| 2026-04-25 23:08 | 48.45571 | 13.74164 | 32409 ft | 484 kts | 83° |
| 2026-04-25 23:08 | 48.45798 | 13.79216 | 32004 ft | 483 kts | 83° |
| 2026-04-25 23:09 | 48.46022 | 13.84255 | 31632 ft | 481 kts | 83° |
| 2026-04-25 23:09 | 48.46243 | 13.89269 | 31215 ft | 479 kts | 82° |
| 2026-04-25 23:09 | 48.46460 | 13.94257 | 30782 ft | 475 kts | 83° |
| 2026-04-25 23:09 | 48.46673 | 13.99202 | 30342 ft | 470 kts | 83° |
| 2026-04-25 23:10 | 48.46881 | 14.04086 | 29865 ft | 464 kts | 83° |
| 2026-04-25 23:10 | 48.47084 | 14.08907 | 29360 ft | 459 kts | 83° |
| 2026-04-25 23:10 | 48.47293 | 14.13799 | 28893 ft | 477 kts | 83° |
| 2026-04-25 23:10 | 48.47512 | 14.18880 | 28430 ft | 493 kts | 83° |
| 2026-04-25 23:11 | 48.47728 | 14.24044 | 27951 ft | 494 kts | 83° |
| 2026-04-25 23:11 | 48.47939 | 14.29230 | 27489 ft | 500 kts | 83° |
| 2026-04-25 23:11 | 48.48150 | 14.34479 | 27031 ft | 503 kts | 83° |
| 2026-04-25 23:11 | 48.48356 | 14.39740 | 26584 ft | 500 kts | 83° |
| 2026-04-25 23:12 | 48.48557 | 14.44940 | 26125 ft | 497 kts | 83° |
| 2026-04-25 23:12 | 48.48756 | 14.50127 | 25683 ft | 493 kts | 83° |
| 2026-04-25 23:12 | 48.48952 | 14.55267 | 25235 ft | 488 kts | 83° |
| 2026-04-25 23:12 | 48.49142 | 14.60323 | 24758 ft | 477 kts | 83° |
| 2026-04-25 23:13 | 48.49326 | 14.65264 | 24277 ft | 468 kts | 83° |
| 2026-04-25 23:13 | 48.49505 | 14.70115 | 23793 ft | 459 kts | 83° |
| 2026-04-25 23:13 | 48.49680 | 14.74881 | 23265 ft | 451 kts | 83° |
| 2026-04-25 23:13 | 48.49848 | 14.79502 | 22726 ft | 445 kts | 83° |
| 2026-04-25 23:14 | 48.50015 | 14.84118 | 22184 ft | 436 kts | 83° |
| 2026-04-25 23:14 | 48.50171 | 14.88583 | 21624 ft | 417 kts | 83° |
| 2026-04-25 23:14 | 48.50325 | 14.92945 | 21093 ft | 409 kts | 83° |
| 2026-04-25 23:14 | 48.50475 | 14.97228 | 20599 ft | 409 kts | 83° |
| 2026-04-25 23:15 | 48.50625 | 15.01516 | 20106 ft | 410 kts | 83° |
| 2026-04-25 23:15 | 48.50772 | 15.05804 | 19620 ft | 409 kts | 83° |
| 2026-04-25 23:15 | 48.50915 | 15.10018 | 19146 ft | 408 kts | 83° |
| 2026-04-25 23:15 | 48.51057 | 15.14287 | 18672 ft | 406 kts | 84° |
| 2026-04-25 23:16 | 48.51195 | 15.18525 | 18194 ft | 404 kts | 84° |
| 2026-04-25 23:16 | 48.51315 | 15.22746 | 17653 ft | 402 kts | 86° |
| 2026-04-25 23:16 | 48.51137 | 15.26957 | 17129 ft | 403 kts | 95° |
| 2026-04-25 23:16 | 48.50614 | 15.31101 | 16620 ft | 406 kts | 102° |
| 2026-04-25 23:17 | 48.49890 | 15.35231 | 16202 ft | 406 kts | 103° |
| 2026-04-25 23:17 | 48.49174 | 15.39327 | 15809 ft | 401 kts | 103° |
| 2026-04-25 23:17 | 48.48471 | 15.43367 | 15430 ft | 395 kts | 103° |
| 2026-04-25 23:17 | 48.47781 | 15.47348 | 15065 ft | 390 kts | 103° |
| 2026-04-25 23:18 | 48.47102 | 15.51283 | 14704 ft | 386 kts | 102° |
| 2026-04-25 23:18 | 48.46430 | 15.55188 | 14324 ft | 383 kts | 103° |
| 2026-04-25 23:18 | 48.45763 | 15.59051 | 13963 ft | 380 kts | 103° |
| 2026-04-25 23:18 | 48.45099 | 15.62892 | 13586 ft | 377 kts | 103° |
| 2026-04-25 23:19 | 48.44439 | 15.66716 | 13316 ft | 384 kts | 103° |
| 2026-04-25 23:19 | 48.43741 | 15.70758 | 13129 ft | 410 kts | 103° |
| 2026-04-25 23:19 | 48.43014 | 15.74956 | 13070 ft | 417 kts | 103° |
| 2026-04-25 23:19 | 48.42278 | 15.79181 | 13031 ft | 418 kts | 103° |
| 2026-04-25 23:20 | 48.41541 | 15.83402 | 13004 ft | 416 kts | 103° |
| 2026-04-25 23:20 | 48.40803 | 15.87610 | 12999 ft | 416 kts | 103° |
| 2026-04-25 23:20 | 48.40063 | 15.91825 | 13002 ft | 416 kts | 103° |
| 2026-04-25 23:20 | 48.39324 | 15.96027 | 13002 ft | 416 kts | 103° |
| 2026-04-25 23:21 | 48.38583 | 16.00230 | 13003 ft | 416 kts | 103° |
| 2026-04-25 23:21 | 48.37841 | 16.04436 | 13005 ft | 416 kts | 103° |
| 2026-04-25 23:21 | 48.37097 | 16.08638 | 12999 ft | 416 kts | 103° |
| 2026-04-25 23:21 | 48.36351 | 16.12843 | 12979 ft | 413 kts | 103° |
| 2026-04-25 23:22 | 48.35618 | 16.16960 | 12709 ft | 402 kts | 103° |
| 2026-04-25 23:22 | 48.34902 | 16.20972 | 12431 ft | 392 kts | 104° |
| 2026-04-25 23:22 | 48.34203 | 16.24881 | 12177 ft | 383 kts | 104° |
| 2026-04-25 23:23 | 48.32847 | 16.32449 | 11642 ft | 366 kts | 104° |
| 2026-04-25 23:23 | 48.32191 | 16.36104 | 11383 ft | 359 kts | 104° |
| 2026-04-25 23:23 | 48.31555 | 16.39638 | 11111 ft | 340 kts | 104° |
| 2026-04-25 23:23 | 48.30950 | 16.42990 | 10836 ft | 327 kts | 104° |
| 2026-04-25 23:24 | 48.30358 | 16.46267 | 10546 ft | 325 kts | 104° |
| 2026-04-25 23:24 | 48.29659 | 16.49450 | 10194 ft | 318 kts | 119° |
| 2026-04-25 23:24 | 48.28271 | 16.51995 | 9893 ft | 313 kts | 144° |
| 2026-04-25 23:24 | 48.27226 | 16.53163 | 9685 ft | 310 kts | 148° |
| 2026-04-25 23:25 | 48.25785 | 16.54731 | 9396 ft | 313 kts | 147° |
| 2026-04-25 23:25 | 48.24035 | 16.56686 | 9055 ft | 311 kts | 146° |
| 2026-04-25 23:25 | 48.22359 | 16.58576 | 8695 ft | 300 kts | 146° |
| 2026-04-25 23:25 | 48.21266 | 16.59809 | 8458 ft | 293 kts | 146° |
| 2026-04-25 23:26 | 48.19134 | 16.62216 | 7997 ft | 281 kts | 144° |
| 2026-04-25 23:26 | 48.17853 | 16.64368 | 7615 ft | 275 kts | 117° |
| 2026-04-25 23:26 | 48.17051 | 16.66948 | 7314 ft | 272 kts | 115° |
| 2026-04-25 23:26 | 48.16232 | 16.69512 | 7008 ft | 276 kts | 116° |
| 2026-04-25 23:27 | 48.15382 | 16.72109 | 6719 ft | 279 kts | 116° |
| 2026-04-25 23:27 | 48.14527 | 16.74709 | 6388 ft | 275 kts | 116° |
| 2026-04-25 23:27 | 48.13691 | 16.77243 | 6041 ft | 268 kts | 115° |
| 2026-04-25 23:27 | 48.12879 | 16.79693 | 5692 ft | 264 kts | 115° |
| 2026-04-25 23:28 | 48.12064 | 16.82153 | 5370 ft | 265 kts | 115° |
| 2026-04-25 23:28 | 48.11235 | 16.84649 | 5072 ft | 271 kts | 115° |
| 2026-04-25 23:28 | 48.10394 | 16.87185 | 4776 ft | 273 kts | 115° |
| 2026-04-25 23:28 | 48.09381 | 16.89545 | 4389 ft | 269 kts | 136° |
| 2026-04-25 23:29 | 48.07946 | 16.91255 | 4057 ft | 259 kts | 146° |
| 2026-04-25 23:29 | 48.06520 | 16.92814 | 3785 ft | 247 kts | 145° |
| 2026-04-25 23:29 | 48.05087 | 16.94125 | 3562 ft | 240 kts | 165° |
| 2026-04-25 23:29 | 48.03476 | 16.94296 | 3298 ft | 228 kts | 199° |
| 2026-04-25 23:30 | 48.02124 | 16.93317 | 3088 ft | 207 kts | 234° |
| 2026-04-25 23:30 | 48.01469 | 16.91572 | 3025 ft | 189 kts | 261° |
| 2026-04-25 23:30 | 48.01168 | 16.89666 | 2990 ft | 188 kts | 268° |
| 2026-04-25 23:30 | 48.01311 | 16.87795 | 2988 ft | 181 kts | 292° |
| 2026-04-25 23:31 | 48.01745 | 16.86007 | 3002 ft | 183 kts | 293° |
| 2026-04-25 23:31 | 48.02230 | 16.84264 | 3003 ft | 182 kts | 296° |
| 2026-04-25 23:31 | 48.02751 | 16.82579 | 2989 ft | 175 kts | 297° |
| 2026-04-25 23:31 | 48.03266 | 16.80977 | 2987 ft | 166 kts | 298° |
| 2026-04-25 23:32 | 48.03592 | 16.79970 | 3002 ft | 161 kts | 298° |
| 2026-04-25 23:32 | 48.04076 | 16.78490 | 2996 ft | 158 kts | 298° |
| 2026-04-25 23:32 | 48.04559 | 16.77010 | 3006 ft | 159 kts | 298° |
| 2026-04-25 23:32 | 48.05048 | 16.75516 | 3011 ft | 161 kts | 298° |
| 2026-04-25 23:33 | 48.05543 | 16.73999 | 2989 ft | 164 kts | 298° |
| 2026-04-25 23:33 | 48.06032 | 16.72495 | 2783 ft | 155 kts | 298° |
| 2026-04-25 23:33 | 48.06491 | 16.71087 | 2565 ft | 146 kts | 297° |
| 2026-04-25 23:33 | 48.06920 | 16.69775 | 2378 ft | 137 kts | 297° |
| 2026-04-25 23:34 | 48.07341 | 16.68487 | 2204 ft | 139 kts | 297° |
| 2026-04-25 23:34 | 48.07767 | 16.67183 | 2019 ft | 140 kts | 296° |
| 2026-04-25 23:34 | 48.08190 | 16.65884 | 1842 ft | 136 kts | 296° |
| 2026-04-25 23:34 | 48.08587 | 16.64662 | 1685 ft | 126 kts | 297° |
| 2026-04-25 23:35 | 48.08972 | 16.63482 | 1484 ft | 130 kts | 296° |
| 2026-04-25 23:35 | 48.09377 | 16.62240 | 1316 ft | 133 kts | 297° |
| 2026-04-25 23:35 | 48.09782 | 16.60998 | 1123 ft | 133 kts | 297° |
| 2026-04-25 23:35 | 48.10188 | 16.59744 | 951 ft | 135 kts | 297° |
| 2026-04-25 23:36 | 48.10607 | 16.58461 | 779 ft | 138 kts | 295° |
| 2026-04-25 23:36 | 48.11030 | 16.57173 | 632 ft | 137 kts | 294° |
| 2026-04-25 23:36 | 48.11397 | 16.56037 | 624 ft | 99 kts | 296° |
| 2026-04-25 23:36 | 48.11627 | 16.55338 | 624 ft | 60 kts | 296° |
| 2026-04-25 23:37 | 48.11775 | 16.54896 | 626 ft | 36 kts | 297° |
| 2026-04-25 23:37 | 48.11903 | 16.54652 | 625 ft | 28 kts | 322° |
| 2026-04-25 23:37 | 48.12002 | 16.54553 | 625 ft | 9 kts | 328° |
| 2026-04-25 23:37 | 48.12057 | 16.54547 | 626 ft | 4 kts | 20° |
| 2026-04-25 23:38 | 48.12078 | 16.54591 | 613 ft | 11 kts | 77° |
| 2026-04-25 23:38 | 48.12036 | 16.54740 | 620 ft | 17 kts | 116° |
| 2026-04-25 23:39 | 48.11982 | 16.54902 | 613 ft | 17 kts | 116° |
| 2026-04-25 23:39 | 48.11929 | 16.55066 | 617 ft | 17 kts | 115° |
| 2026-04-25 23:39 | 48.11876 | 16.55230 | 626 ft | 17 kts | 115° |
| 2026-04-25 23:39 | 48.11824 | 16.55393 | 624 ft | 17 kts | 115° |
| 2026-04-25 23:40 | 48.11772 | 16.55557 | 632 ft | 17 kts | 115° |
| 2026-04-25 23:40 | 48.11751 | 16.55619 | 613 ft | 0 kts | 115° |
| 2026-04-25 23:40 | 48.11745 | 16.55639 | 623 ft | 3 kts | 116° |
| 2026-04-25 23:40 | 48.11732 | 16.55680 | 626 ft | 6 kts | 116° |
| 2026-04-25 23:41 | 48.11718 | 16.55745 | 628 ft | 7 kts | 91° |
| 2026-04-25 23:41 | 48.11745 | 16.55799 | 624 ft | 5 kts | 36° |
| 2026-04-25 23:41 | 48.11747 | 16.55885 | 628 ft | 17 kts | 103° |
| 2026-04-25 23:41 | 48.11682 | 16.56104 | 623 ft | 22 kts | 116° |
| 2026-04-25 23:42 | 48.11662 | 16.56219 | 631 ft | 7 kts | 56° |
| 2026-04-25 23:42 | 48.11707 | 16.56224 | 617 ft | 7 kts | 347° |
| 2026-04-25 23:42 | 48.11752 | 16.56203 | 627 ft | 7 kts | 344° |
| 2026-04-25 23:42 | 48.11781 | 16.56190 | 625 ft | 0 kts | 343° |